DNEN METAR and TAF | Updated Today

DNEN METAR

Akanu Ibiam International Airport

Observation time: 43 min. ago

DNEN 080500Z 27004KT 3000 HZ NSC 21/18 Q1012 TEMPO 1500 HZ

Need help? Read our tutorial on how to read METARs or read the parsed version below.

Akanu Ibiam International Airport (DNEN) METAR

  • Weather conditions on Wed, 08 Dec 2021 05:00:00 +0000 (43 min. ago):
  • Present conditions: Haze
  • Clouds: No significant clouds are observed
  • Visibility: 3000 meters
  • Wind: 270 degrees at 4 knots
  • Temperature: 21 celsius
  • Dew point: 18 celsius
  • Pressure: 1012 millibars
  • Remarks: None


Useful to know...

DNEN TAF

Akanu Ibiam International Airport

TAF not found.

Airports near DNEN

No airports found within 100nm radius.